Terminal Aerodrome Forecast
Issued by NWS

Home | Current Version | Previous Version | Text Only | Print | Product List | Glossary On
Versions: 1 2 3 4 5 6 7 8 9 10 11 12 13 14 15 16 17 18 19 20 21 22 23 24 25 26
000
FTUS41 KBOX 061126
TAFACK
TAF
KACK 061126Z 0612/0712 04010KT P6SM BKN060 BKN100
     FM061700 08008KT P6SM BKN120
     FM062100 12007KT P6SM SCT150
     FM070000 18004KT P6SM FEW250
     FM070500 25004KT P6SM FEW250=

USA.gov is the U.S. government's official web portal to all federal, state and local government web resources and services.